Time;durP1;ratioP1;P1;durP2;ratioP2;P2;SDS_P1;SDS_P2;PMS_P1;PMS_P2;Temp;Humidity;BMP_temperature;BMP_pressure;BME280_temperature;BME280_humidity;BME280_pressure;Samples;Min_cycle;Max_cycle;Signal;HPM_P1;HPM_P2
2023/07/07 00:01:53;;;;;;;4.43;3.15;;;25.60;36.30;;;;;;5148693;27;45249;-67
2023/07/07 00:04:21;;;;;;;3.47;2.83;;;25.60;36.30;;;;;;5147874;27;45384;-67
2023/07/07 00:06:48;;;;;;;4.43;2.95;;;25.60;36.30;;;;;;5148602;27;45434;-67
2023/07/07 00:09:15;;;;;;;3.38;3.08;;;25.60;36.40;;;;;;5148438;27;45370;-67
2023/07/07 00:11:41;;;;;;;3.70;2.80;;;25.60;36.40;;;;;;5148526;27;45237;-67
2023/07/07 00:14:08;;;;;;;3.03;2.72;;;25.50;36.30;;;;;;5148658;27;45274;-67
2023/07/07 00:16:37;;;;;;;3.70;3.00;;;25.50;36.40;;;;;;5147999;27;45771;-66
2023/07/07 00:19:09;;;;;;;3.47;2.72;;;25.50;36.40;;;;;;5148171;27;45316;-66
2023/07/07 00:21:36;;;;;;;3.45;3.00;;;25.50;36.40;;;;;;5148584;27;45378;-68
2023/07/07 00:24:03;;;;;;;3.65;3.03;;;25.50;36.40;;;;;;5148829;27;45383;-68
2023/07/07 00:26:32;;;;;;;2.92;2.63;;;25.50;36.50;;;;;;5148217;27;45622;-66
2023/07/07 00:28:58;;;;;;;3.60;2.83;;;25.40;36.40;;;;;;5148328;27;45135;-67
2023/07/07 00:31:25;;;;;;;3.30;2.78;;;25.40;36.50;;;;;;5148520;27;45467;-67
2023/07/07 00:33:54;;;;;;;3.10;2.72;;;25.40;36.50;;;;;;5148547;27;45399;-66
2023/07/07 00:36:20;;;;;;;3.20;2.85;;;25.40;36.50;;;;;;5147971;27;45267;-66
2023/07/07 00:38:47;;;;;;;3.63;2.88;;;25.30;36.50;;;;;;5147995;27;45280;-67
2023/07/07 00:41:14;;;;;;;3.10;2.80;;;25.30;36.50;;;;;;5148259;27;45343;-66
2023/07/07 00:43:41;;;;;;;3.60;2.72;;;25.30;36.50;;;;;;5148353;27;45462;-66
2023/07/07 00:46:09;;;;;;;3.10;2.65;;;25.30;36.60;;;;;;5148029;27;45433;-68
2023/07/07 00:48:37;;;;;;;3.67;2.67;;;25.30;36.60;;;;;;5147983;27;45287;-68
2023/07/07 00:51:07;;;;;;;3.22;2.88;;;25.30;36.60;;;;;;5147917;27;45340;-67
2023/07/07 00:53:33;;;;;;;3.50;2.95;;;25.30;36.60;;;;;;5148158;27;45470;-68
2023/07/07 00:56:02;;;;;;;3.40;2.80;;;25.30;36.70;;;;;;5147854;27;46376;-68
2023/07/07 00:58:29;;;;;;;2.92;2.63;;;25.20;36.60;;;;;;5147991;27;45296;-66
2023/07/07 01:00:59;;;;;;;3.97;3.10;;;25.20;36.60;;;;;;5147279;27;45376;-69
2023/07/07 01:03:27;;;;;;;3.25;2.88;;;25.20;36.70;;;;;;5147580;27;45224;-66
2023/07/07 01:05:55;;;;;;;3.25;2.95;;;25.20;36.70;;;;;;5147590;27;45225;-67
2023/07/07 01:08:23;;;;;;;3.35;2.85;;;25.10;36.60;;;;;;5147530;27;44856;-67
2023/07/07 01:10:50;;;;;;;3.88;3.00;;;25.10;36.70;;;;;;5147998;27;45403;-66
2023/07/07 01:13:17;;;;;;;4.22;3.25;;;25.10;36.70;;;;;;5148098;27;45117;-66
2023/07/07 01:15:48;;;;;;;3.30;2.95;;;25.10;36.70;;;;;;5149658;27;47454;-67
2023/07/07 01:18:20;;;;;;;3.25;2.58;;;25.10;36.70;;;;;;5151200;27;45374;-69
2023/07/07 01:20:52;;;;;;;4.38;3.15;;;25.00;36.70;;;;;;5151341;27;45339;-69
2023/07/07 01:23:51;;;;;;;4.22;3.10;;;25.00;36.70;;;;;;5151516;27;45245;-69
2023/07/07 01:26:23;;;;;;;3.63;2.80;;;25.00;36.80;;;;;;5151123;27;45430;-69
2023/07/07 01:29:14;;;;;;;3.15;2.72;;;25.00;37.40;;;;;;5151257;27;45318;-69
2023/07/07 01:31:44;;;;;;;3.50;2.75;;;25.00;36.80;;;;;;5151547;27;45277;-69
2023/07/07 01:34:12;;;;;;;3.10;2.55;;;25.00;36.80;;;;;;5151576;27;45338;-66
2023/07/07 01:36:38;;;;;;;2.97;2.65;;;24.90;36.80;;;;;;5150707;27;46409;-67
2023/07/07 01:39:06;;;;;;;2.63;2.42;;;24.90;36.80;;;;;;5150615;27;45355;-67
2023/07/07 01:41:35;;;;;;;3.88;3.00;;;24.90;36.90;;;;;;5150739;27;45266;-67
2023/07/07 01:44:05;;;;;;;3.30;3.00;;;24.90;36.90;;;;;;5151040;27;45305;-67
2023/07/07 01:46:32;;;;;;;3.78;2.88;;;24.90;36.90;;;;;;5150680;27;46728;-67
2023/07/07 01:49:05;;;;;;;3.78;3.08;;;24.80;36.80;;;;;;5150647;27;45134;-67
2023/07/07 01:51:40;;;;;;;3.03;2.72;;;24.80;36.90;;;;;;5150608;27;45250;-66
2023/07/07 01:54:07;;;;;;;3.38;2.70;;;24.80;36.90;;;;;;5151240;27;45202;-66
2023/07/07 01:56:34;;;;;;;3.38;2.45;;;24.80;37.00;;;;;;5150568;27;45473;-68
2023/07/07 01:59:01;;;;;;;3.13;2.60;;;24.80;37.00;;;;;;5150654;27;45248;-68
2023/07/07 02:01:28;;;;;;;3.67;2.78;;;24.80;37.00;;;;;;5150399;27;45422;-68
2023/07/07 02:03:55;;;;;;;2.50;2.08;;;24.70;37.00;;;;;;5150877;27;45450;-68
2023/07/07 02:06:23;;;;;;;4.47;2.60;;;24.70;37.10;;;;;;5150404;27;47601;-68
2023/07/07 02:08:50;;;;;;;3.00;2.60;;;24.70;37.00;;;;;;5150426;27;45244;-67
2023/07/07 02:11:17;;;;;;;2.55;2.35;;;24.70;37.10;;;;;;5150477;27;45356;-68
2023/07/07 02:13:44;;;;;;;3.15;2.30;;;24.70;37.10;;;;;;5150678;27;45394;-68
2023/07/07 02:16:10;;;;;;;3.58;2.40;;;24.70;37.10;;;;;;5150273;27;46727;-68
2023/07/07 02:18:38;;;;;;;3.25;2.50;;;24.70;37.10;;;;;;5150111;27;45265;-67
2023/07/07 02:21:05;;;;;;;3.55;2.80;;;24.60;37.00;;;;;;5149696;27;45322;-67
2023/07/07 02:23:33;;;;;;;5.88;2.70;;;24.60;37.00;;;;;;5150500;27;45294;-68
2023/07/07 02:26:00;;;;;;;2.80;2.55;;;24.60;37.10;;;;;;5149764;27;46401;-68
2023/07/07 02:28:27;;;;;;;2.58;2.38;;;24.60;37.10;;;;;;5149750;27;45304;-69
2023/07/07 02:30:55;;;;;;;2.70;2.42;;;24.60;37.10;;;;;;5150024;27;45356;-68
2023/07/07 02:33:30;;;;;;;4.32;2.67;;;24.50;37.10;;;;;;5150289;27;45251;-68
2023/07/07 02:35:59;;;;;;;2.38;2.13;;;24.50;37.10;;;;;;5150006;27;45357;-68
2023/07/07 02:38:26;;;;;;;3.13;2.70;;;24.50;37.10;;;;;;5149833;27;45376;-68
2023/07/07 02:40:54;;;;;;;2.58;2.38;;;24.50;37.10;;;;;;5149814;27;45394;-68
2023/07/07 02:43:21;;;;;;;2.58;2.10;;;24.50;37.10;;;;;;5150272;27;45272;-68
2023/07/07 02:45:47;;;;;;;2.38;2.17;;;24.50;37.20;;;;;;5149820;27;46384;-68
2023/07/07 02:48:14;;;;;;;2.38;2.08;;;24.50;37.20;;;;;;5149699;27;45425;-68
2023/07/07 02:50:41;;;;;;;3.63;2.30;;;24.40;37.20;;;;;;5149693;27;45335;-68
2023/07/07 02:53:08;;;;;;;3.22;2.40;;;24.40;37.20;;;;;;5149997;27;45560;-68
2023/07/07 02:55:34;;;;;;;3.17;2.33;;;24.40;37.20;;;;;;5149287;27;48669;-66
2023/07/07 02:58:03;;;;;;;4.68;2.70;;;24.40;37.30;;;;;;5149715;27;45241;-66
2023/07/07 03:00:29;;;;;;;4.10;2.45;;;24.40;37.20;;;;;;5149677;27;45442;-67
2023/07/07 03:03:02;;;;;;;2.97;2.25;;;24.30;37.20;;;;;;5149684;27;45356;-67
2023/07/07 03:05:31;;;;;;;2.63;2.38;;;24.30;37.20;;;;;;5149264;27;46750;-66
2023/07/07 03:07:57;;;;;;;2.75;2.50;;;24.30;37.30;;;;;;5149714;27;45293;-67
2023/07/07 03:10:24;;;;;;;2.55;2.35;;;24.30;37.30;;;;;;5148851;27;45284;-67
2023/07/07 03:12:51;;;;;;;3.53;2.63;;;24.30;37.30;;;;;;5149880;27;45319;-67
2023/07/07 03:15:20;;;;;;;2.45;2.17;;;24.20;37.30;;;;;;5149195;27;46424;-67
2023/07/07 03:17:47;;;;;;;3.33;2.28;;;24.20;37.40;;;;;;5149147;27;45494;-66
2023/07/07 03:20:14;;;;;;;2.58;2.22;;;24.20;37.40;;;;;;5149309;27;44775;-67
2023/07/07 03:22:41;;;;;;;3.00;2.13;;;24.20;37.40;;;;;;5149534;27;45254;-68
2023/07/07 03:25:09;;;;;;;2.58;2.10;;;24.20;37.40;;;;;;5149493;27;46245;-66
2023/07/07 03:27:36;;;;;;;3.38;2.20;;;24.20;37.40;;;;;;5149151;27;45358;-67
2023/07/07 03:30:03;;;;;;;2.20;2.00;;;24.20;37.50;;;;;;5149184;27;45338;-67
2023/07/07 03:32:32;;;;;;;2.42;2.22;;;24.20;37.50;;;;;;5149297;27;45623;-66
2023/07/07 03:34:59;;;;;;;3.40;2.47;;;24.10;37.50;;;;;;5149019;27;46710;-67
2023/07/07 03:37:25;;;;;;;3.03;2.30;;;24.10;37.50;;;;;;5148833;27;45325;-67
2023/07/07 03:39:52;;;;;;;3.05;2.30;;;24.10;37.50;;;;;;5148879;27;45407;-67
2023/07/07 03:42:19;;;;;;;2.42;2.10;;;24.10;37.50;;;;;;5148986;27;45122;-67
2023/07/07 03:44:46;;;;;;;2.72;2.30;;;24.10;37.60;;;;;;5148744;27;46287;-67
2023/07/07 03:47:12;;;;;;;2.92;2.30;;;24.10;37.60;;;;;;5148933;27;45241;-67
2023/07/07 03:49:41;;;;;;;2.70;2.50;;;24.10;37.60;;;;;;5149038;27;45473;-67
2023/07/07 03:52:08;;;;;;;3.35;2.60;;;24.10;37.60;;;;;;5148778;27;45520;-67
2023/07/07 03:54:35;;;;;;;5.80;2.28;;;24.10;37.70;;;;;;5148151;27;45311;-67
2023/07/07 03:57:02;;;;;;;2.00;1.80;;;24.10;37.60;;;;;;5148729;27;45236;-67
2023/07/07 03:59:28;;;;;;;3.17;2.30;;;24.00;37.60;;;;;;5148716;27;45256;-67
2023/07/07 04:01:55;;;;;;;2.33;2.00;;;24.00;37.70;;;;;;5148796;27;45361;-68
2023/07/07 04:04:22;;;;;;;2.47;2.22;;;24.00;37.70;;;;;;5148596;27;46724;-67
2023/07/07 04:06:50;;;;;;;2.55;2.08;;;24.00;37.70;;;;;;5148565;27;45307;-67
2023/07/07 04:09:17;;;;;;;3.75;2.13;;;24.00;37.70;;;;;;5148680;27;45228;-67
2023/07/07 04:11:44;;;;;;;2.75;2.13;;;23.90;37.70;;;;;;5148528;27;45333;-67
2023/07/07 04:14:11;;;;;;;2.33;1.98;;;23.90;37.70;;;;;;5148391;27;46387;-68
2023/07/07 04:16:37;;;;;;;2.45;2.17;;;23.90;37.70;;;;;;5148370;27;45416;-67
2023/07/07 04:19:04;;;;;;;2.95;2.38;;;23.90;37.70;;;;;;5148480;27;45260;-67
2023/07/07 04:21:32;;;;;;;3.22;2.50;;;23.90;37.80;;;;;;5148397;27;45468;-68
2023/07/07 04:24:00;;;;;;;3.10;1.98;;;23.90;37.80;;;;;;5147641;27;46649;-67
2023/07/07 04:26:28;;;;;;;2.63;2.42;;;23.80;37.70;;;;;;5147794;27;45366;-67
2023/07/07 04:28:55;;;;;;;3.25;2.40;;;23.80;37.80;;;;;;5147964;27;45353;-67
2023/07/07 04:31:23;;;;;;;2.80;2.45;;;23.80;37.80;;;;;;5147930;27;45488;-67
2023/07/07 04:33:50;;;;;;;3.10;2.42;;;23.80;37.80;;;;;;5147606;27;46786;-67
2023/07/07 04:36:17;;;;;;;3.38;2.50;;;23.80;37.90;;;;;;5147635;27;45381;-67
2023/07/07 04:38:44;;;;;;;3.03;2.40;;;23.80;37.90;;;;;;5147927;27;45248;-68
2023/07/07 04:41:14;;;;;;;3.80;2.42;;;23.80;37.80;;;;;;5145154;27;45384;-67
2023/07/07 04:43:41;;;;;;;2.20;2.00;;;23.80;37.80;;;;;;5147283;27;46718;-67
2023/07/07 04:46:09;;;;;;;2.55;2.15;;;23.80;37.90;;;;;;5147448;27;45249;-67
2023/07/07 04:48:36;;;;;;;2.90;2.28;;;23.80;37.90;;;;;;5147635;27;45154;-68
2023/07/07 04:51:06;;;;;;;2.63;2.10;;;23.70;37.80;;;;;;5149994;27;45245;-67
2023/07/07 04:53:33;;;;;;;3.00;2.10;;;23.70;37.90;;;;;;5151017;27;46600;-67
2023/07/07 04:56:00;;;;;;;2.65;2.13;;;23.70;37.80;;;;;;5151071;27;45172;-67
2023/07/07 04:58:28;;;;;;;3.15;2.47;;;23.70;37.90;;;;;;5151108;27;45306;-67
2023/07/07 05:01:05;;;;;;;3.17;2.00;;;23.70;37.90;;;;;;5151200;27;45438;-67
2023/07/07 05:03:32;;;;;;;2.50;2.30;;;23.70;37.90;;;;;;5150859;27;46896;-67
2023/07/07 05:05:59;;;;;;;2.08;1.80;;;23.70;37.90;;;;;;5150814;27;45383;-68
2023/07/07 05:08:26;;;;;;;2.33;2.10;;;23.70;38.00;;;;;;5150925;27;45354;-67
2023/07/07 05:10:52;;;;;;;1.95;1.83;;;23.70;37.90;;;;;;5150900;27;45244;-67
2023/07/07 05:13:19;;;;;;;2.70;2.22;;;23.70;37.90;;;;;;5150769;27;45324;-67
2023/07/07 05:15:47;;;;;;;3.13;2.45;;;23.70;37.90;;;;;;5150617;27;45347;-67
2023/07/07 05:18:16;;;;;;;2.85;1.92;;;23.70;37.80;;;;;;5150963;27;45419;-67
2023/07/07 05:20:43;;;;;;;2.53;2.13;;;23.70;37.80;;;;;;5150779;27;45568;-67
2023/07/07 05:23:09;;;;;;;3.70;2.15;;;23.70;37.80;;;;;;5150574;27;45461;-68
2023/07/07 05:25:38;;;;;;;2.00;1.75;;;23.70;37.80;;;;;;5150686;27;45311;-67
2023/07/07 05:28:05;;;;;;;2.67;1.63;;;23.70;37.80;;;;;;5150728;27;45264;-67
2023/07/07 05:30:32;;;;;;;1.98;1.73;;;23.70;37.80;;;;;;5150706;27;45344;-67
2023/07/07 05:33:00;;;;;;;2.55;1.80;;;23.70;37.80;;;;;;5150508;27;47514;-67
2023/07/07 05:35:27;;;;;;;2.15;1.95;;;23.70;37.70;;;;;;5150339;27;45502;-67
2023/07/07 05:37:53;;;;;;;2.45;2.20;;;23.70;37.80;;;;;;5150464;27;45301;-67
2023/07/07 05:40:20;;;;;;;2.10;1.85;;;23.70;37.80;;;;;;5150272;27;45494;-68
2023/07/07 05:42:47;;;;;;;2.13;1.90;;;23.70;37.80;;;;;;5150128;27;45806;-67
2023/07/07 05:45:14;;;;;;;3.33;2.25;;;23.70;37.80;;;;;;5150366;27;45310;-68
2023/07/07 05:47:41;;;;;;;2.15;1.90;;;23.70;38.40;;;;;;5150512;27;45382;-67
2023/07/07 05:50:09;;;;;;;2.20;1.95;;;23.70;37.80;;;;;;5150379;27;45410;-67
2023/07/07 05:52:36;;;;;;;2.08;1.80;;;23.70;37.80;;;;;;5149661;27;46819;-67
2023/07/07 05:55:04;;;;;;;2.55;2.25;;;23.70;38.40;;;;;;5150196;27;45264;-67
2023/07/07 05:57:31;;;;;;;2.20;2.00;;;23.70;37.80;;;;;;5150416;27;45472;-67
2023/07/07 05:59:57;;;;;;;1.75;1.60;;;23.70;37.90;;;;;;5150427;27;45533;-67
2023/07/07 06:02:24;;;;;;;2.92;2.22;;;23.70;37.90;;;;;;5148888;27;45435;-68
2023/07/07 06:04:51;;;;;;;2.28;1.90;;;23.70;37.90;;;;;;5150194;27;45271;-67
2023/07/07 06:07:19;;;;;;;3.20;2.13;;;23.70;37.90;;;;;;5150260;27;45236;-67
2023/07/07 06:09:50;;;;;;;2.83;2.00;;;23.70;38.00;;;;;;5150135;27;45389;-67
2023/07/07 06:12:17;;;;;;;2.30;1.95;;;23.70;38.10;;;;;;5149730;27;45701;-67
2023/07/07 06:14:44;;;;;;;2.75;2.10;;;23.80;38.10;;;;;;5149845;27;45263;-67
2023/07/07 06:17:10;;;;;;;2.05;1.88;;;23.80;38.00;;;;;;5150194;27;45326;-67
2023/07/07 06:19:37;;;;;;;3.20;1.90;;;23.80;38.10;;;;;;5149738;27;45386;-67
2023/07/07 06:22:04;;;;;;;2.33;2.13;;;23.80;38.10;;;;;;5149380;27;45494;-67
2023/07/07 06:24:33;;;;;;;2.80;1.90;;;23.80;38.10;;;;;;5149560;27;45223;-68
2023/07/07 06:26:59;;;;;;;2.33;1.98;;;23.80;38.10;;;;;;5149516;27;45306;-67
2023/07/07 06:29:26;;;;;;;2.28;2.03;;;23.80;38.20;;;;;;5149525;27;45579;-67
2023/07/07 06:31:53;;;;;;;2.72;2.10;;;23.80;38.10;;;;;;5149269;27;46371;-67
2023/07/07 06:34:20;;;;;;;2.92;1.70;;;23.80;38.20;;;;;;5146618;27;45375;-67
2023/07/07 06:36:47;;;;;;;4.53;2.05;;;23.80;38.20;;;;;;5149412;27;45291;-67
2023/07/07 06:39:14;;;;;;;2.97;2.00;;;23.90;38.50;;;;;;5149165;27;45324;-68
2023/07/07 06:41:42;;;;;;;3.53;2.38;;;23.90;38.50;;;;;;5148938;27;45470;-67
2023/07/07 06:44:09;;;;;;;2.30;2.10;;;23.90;38.50;;;;;;5148897;27;45315;-68
2023/07/07 06:46:35;;;;;;;4.18;2.08;;;23.90;38.40;;;;;;5149105;27;45321;-67
2023/07/07 06:49:04;;;;;;;3.38;2.00;;;23.90;38.50;;;;;;5149213;27;45450;-67
2023/07/07 06:51:31;;;;;;;7.85;2.55;;;24.00;38.60;;;;;;5148698;27;45447;-67
2023/07/07 06:53:59;;;;;;;4.20;2.25;;;24.00;38.60;;;;;;5148853;27;45430;-68
2023/07/07 06:56:25;;;;;;;7.20;2.30;;;24.00;38.60;;;;;;5148954;27;45434;-68
2023/07/07 06:58:53;;;;;;;3.22;2.03;;;24.00;38.60;;;;;;5149001;27;45438;-68
2023/07/07 07:01:20;;;;;;;2.78;1.95;;;24.00;38.60;;;;;;5148422;27;45321;-68
2023/07/07 07:03:47;;;;;;;2.97;1.95;;;24.00;38.70;;;;;;5148583;27;45367;-68
2023/07/07 07:06:14;;;;;;;2.65;2.08;;;24.10;38.70;;;;;;5148926;27;45326;-68
2023/07/07 07:08:40;;;;;;;7.22;2.10;;;24.10;38.80;;;;;;5148893;27;45592;-68
2023/07/07 07:11:07;;;;;;;3.15;2.40;;;24.10;38.80;;;;;;5148478;27;48644;-68
2023/07/07 07:13:34;;;;;;;2.50;1.85;;;24.10;38.80;;;;;;5148186;27;45283;-68
2023/07/07 07:16:02;;;;;;;3.47;2.03;;;24.10;38.90;;;;;;5149036;27;45599;-68
2023/07/07 07:18:29;;;;;;;3.75;2.60;;;24.10;38.90;;;;;;5148781;27;45381;-68
2023/07/07 07:20:56;;;;;;;3.33;2.42;;;24.10;38.90;;;;;;5148149;27;46363;-67
2023/07/07 07:23:23;;;;;;;3.72;2.60;;;24.20;39.00;;;;;;5148059;27;45415;-67
2023/07/07 07:25:49;;;;;;;3.08;2.20;;;24.20;39.00;;;;;;5148583;27;45297;-68
2023/07/07 07:28:16;;;;;;;2.75;2.25;;;24.20;39.10;;;;;;5148553;27;45329;-68
2023/07/07 07:30:43;;;;;;;3.15;2.40;;;24.20;39.10;;;;;;5147672;27;45457;-68
2023/07/07 07:33:14;;;;;;;2.53;2.10;;;24.20;39.10;;;;;;5148424;27;45400;-68
2023/07/07 07:35:40;;;;;;;5.70;2.40;;;24.20;39.10;;;;;;5148422;27;45317;-68
2023/07/07 07:38:08;;;;;;;3.13;2.20;;;24.30;39.20;;;;;;5148463;27;45481;-68
2023/07/07 07:40:35;;;;;;;3.40;2.63;;;24.30;39.20;;;;;;5147921;27;45471;-69
2023/07/07 07:43:01;;;;;;;2.70;2.17;;;24.30;39.20;;;;;;5148089;27;45267;-67
2023/07/07 07:45:28;;;;;;;2.92;2.17;;;24.40;39.20;;;;;;5148166;27;45343;-67
2023/07/07 07:47:55;;;;;;;3.80;2.38;;;24.40;39.10;;;;;;5148316;27;45373;-68
2023/07/07 07:50:23;;;;;;;3.13;2.35;;;24.40;39.10;;;;;;5147698;27;45545;-67
2023/07/07 07:52:50;;;;;;;2.40;1.90;;;24.40;39.10;;;;;;5147450;27;45351;-68
2023/07/07 07:55:17;;;;;;;3.67;2.25;;;24.50;39.00;;;;;;5148080;27;45319;-67
2023/07/07 07:57:44;;;;;;;3.08;1.95;;;24.50;39.00;;;;;;5148070;27;45358;-68
2023/07/07 08:00:11;;;;;;;3.63;2.20;;;24.50;38.90;;;;;;5147463;27;46513;-67
2023/07/07 08:02:39;;;;;;;2.67;2.10;;;24.50;38.90;;;;;;5144944;27;45356;-68
2023/07/07 08:05:06;;;;;;;3.72;2.25;;;24.50;38.80;;;;;;5147786;27;45328;-68
2023/07/07 08:07:34;;;;;;;2.03;1.83;;;24.60;38.80;;;;;;5147919;27;45498;-67
2023/07/07 08:10:01;;;;;;;5.82;2.00;;;24.60;38.80;;;;;;5147329;27;45507;-68
2023/07/07 08:12:28;;;;;;;3.42;2.10;;;24.60;38.70;;;;;;5147337;27;45376;-67
2023/07/07 08:14:55;;;;;;;3.30;2.13;;;24.60;38.70;;;;;;5147662;27;45388;-68
2023/07/07 08:17:21;;;;;;;5.35;2.05;;;24.70;38.70;;;;;;5147716;27;45674;-67
2023/07/07 08:19:48;;;;;;;3.03;2.22;;;24.70;38.70;;;;;;5147458;27;45466;-68
2023/07/07 08:22:16;;;;;;;3.15;2.08;;;24.70;38.60;;;;;;5147216;27;45390;-68
2023/07/07 08:24:46;;;;;;;2.60;2.08;;;24.70;38.60;;;;;;5146809;27;45325;-67
2023/07/07 08:27:13;;;;;;;2.20;2.00;;;24.80;38.60;;;;;;5147660;27;45575;-67
2023/07/07 08:29:40;;;;;;;2.88;2.35;;;24.80;38.60;;;;;;5147281;27;45456;-67
2023/07/07 08:32:08;;;;;;;3.20;2.08;;;24.80;38.70;;;;;;5147546;27;45457;-67
2023/07/07 08:34:35;;;;;;;5.15;2.35;;;24.90;38.70;;;;;;5148381;27;45480;-68
2023/07/07 08:37:02;;;;;;;4.40;2.70;;;24.90;38.90;;;;;;5148117;27;45418;-68
2023/07/07 08:39:29;;;;;;;6.13;2.78;;;24.90;39.00;;;;;;5148460;27;45588;-68
2023/07/07 08:42:00;;;;;;;2.75;2.45;;;25.00;39.20;;;;;;5148887;27;45317;-68
2023/07/07 08:44:28;;;;;;;3.65;2.47;;;25.00;39.30;;;;;;5147354;27;45317;-68
2023/07/07 08:47:02;;;;;;;3.00;2.70;;;25.00;39.40;;;;;;5147302;27;45099;-67
2023/07/07 08:49:32;;;;;;;3.10;2.53;;;25.10;39.60;;;;;;5143475;27;45370;-67
2023/07/07 08:52:01;;;;;;;2.40;2.20;;;25.10;39.60;;;;;;5145831;27;45463;-68
2023/07/07 08:54:31;;;;;;;3.35;2.20;;;25.10;39.50;;;;;;5146721;27;45272;-68
2023/07/07 08:57:02;;;;;;;2.55;2.25;;;25.20;39.60;;;;;;5158598;27;45457;-66
2023/07/07 08:59:33;;;;;;;3.78;2.50;;;25.20;39.60;;;;;;5147257;27;45568;-66
2023/07/07 09:02:03;;;;;;;4.60;2.70;;;25.20;39.60;;;;;;5146566;27;45481;-67
2023/07/07 09:04:35;;;;;;;3.42;2.65;;;25.30;39.70;;;;;;5144470;27;45265;-66
2023/07/07 09:07:21;;;;;;;3.17;2.20;;;25.30;39.60;;;;;;5142953;27;45402;-68
2023/07/07 09:10:19;;;;;;;4.35;2.40;;;25.30;39.70;;;;;;5135904;27;45513;-66
2023/07/07 09:12:48;;;;;;;3.92;2.80;;;25.30;39.60;;;;;;5145826;27;45408;-68
2023/07/07 09:15:18;;;;;;;4.78;2.40;;;25.40;39.70;;;;;;5129871;27;45272;-68
2023/07/07 09:17:47;;;;;;;3.17;2.55;;;25.40;39.70;;;;;;5146874;27;45391;-67
2023/07/07 09:20:13;;;;;;;3.45;2.40;;;25.50;39.60;;;;;;5146219;27;45555;-68
2023/07/07 09:22:43;;;;;;;5.35;2.72;;;25.50;39.60;;;;;;5146584;27;45440;-68
2023/07/07 09:25:16;;;;;;;3.17;2.58;;;25.50;39.60;;;;;;5146849;27;45394;-67
2023/07/07 09:27:45;;;;;;;4.60;2.80;;;25.60;39.70;;;;;;5146957;27;45458;-68
2023/07/07 09:30:17;;;;;;;3.50;2.47;;;25.60;39.70;;;;;;5146522;27;45262;-67
2023/07/07 09:32:44;;;;;;;6.00;2.45;;;25.60;39.70;;;;;;5146348;27;45321;-67
2023/07/07 09:35:12;;;;;;;3.28;2.70;;;25.60;40.20;;;;;;5145245;27;45394;-67
2023/07/07 09:37:48;;;;;;;4.32;2.78;;;25.70;39.70;;;;;;5145168;27;45488;-67
2023/07/07 09:40:16;;;;;;;2.40;2.20;;;25.70;39.70;;;;;;5142424;27;45573;-67
2023/07/07 09:42:50;;;;;;;3.25;2.65;;;25.80;39.70;;;;;;5140771;27;45404;-67
2023/07/07 09:45:33;;;;;;;3.20;2.78;;;25.80;39.70;;;;;;5139986;27;45442;-67
2023/07/07 09:48:06;;;;;;;2.85;2.55;;;25.80;39.60;;;;;;5139067;27;45480;-67
2023/07/07 09:50:35;;;;;;;3.85;2.70;;;25.90;39.70;;;;;;5141404;27;47334;-67
2023/07/07 09:53:04;;;;;;;3.53;2.75;;;25.90;39.70;;;;;;5138486;27;45832;-67
2023/07/07 09:55:33;;;;;;;4.70;3.00;;;25.90;40.30;;;;;;5135960;27;45433;-67
2023/07/07 09:58:03;;;;;;;5.38;2.92;;;26.00;40.70;;;;;;5134878;27;45500;-68
2023/07/07 10:00:32;;;;;;;5.07;2.80;;;26.00;40.80;;;;;;5146935;27;45551;-67
2023/07/07 10:02:59;;;;;;;4.90;2.90;;;26.00;40.80;;;;;;5159284;27;45376;-68
2023/07/07 10:05:30;;;;;;;4.35;3.20;;;26.10;41.00;;;;;;5156849;27;45452;-68
2023/07/07 10:07:57;;;;;;;4.57;3.40;;;26.10;41.00;;;;;;5148995;27;45766;-68
2023/07/07 10:10:23;;;;;;;6.00;3.05;;;26.20;41.20;;;;;;5150115;27;45505;-67
2023/07/07 10:12:50;;;;;;;3.92;2.67;;;26.20;41.00;;;;;;5148688;27;45474;-68
2023/07/07 10:15:40;;;;;;;4.30;3.05;;;26.30;40.90;;;;;;5149821;27;45331;-67
2023/07/07 10:18:13;;;;;;;5.63;2.95;;;26.40;40.90;;;;;;5129208;27;45427;-67
2023/07/07 10:20:40;;;;;;;2.90;2.65;;;26.40;40.80;;;;;;5147028;27;46393;-67
2023/07/07 10:23:10;;;;;;;4.50;2.80;;;26.50;40.80;;;;;;5143267;27;45447;-67
2023/07/07 10:25:37;;;;;;;6.40;3.38;;;26.50;40.80;;;;;;5131146;27;45384;-68
2023/07/07 10:28:04;;;;;;;3.60;2.95;;;26.50;40.80;;;;;;5150693;27;45411;-67
2023/07/07 10:30:31;;;;;;;2.90;2.63;;;26.50;40.80;;;;;;5148439;27;46398;-68
2023/07/07 10:32:59;;;;;;;3.38;2.80;;;26.60;40.90;;;;;;5132140;27;45477;-67
2023/07/07 10:35:26;;;;;;;3.50;2.90;;;26.70;40.70;;;;;;5141794;27;45369;-68
2023/07/07 10:37:53;;;;;;;5.22;3.60;;;26.70;41.30;;;;;;5147886;27;45485;-68
2023/07/07 10:40:24;;;;;;;4.57;2.88;;;26.80;40.60;;;;;;5147569;27;47334;-69
2023/07/07 10:42:53;;;;;;;4.10;3.15;;;26.80;40.60;;;;;;5148860;27;45516;-69
2023/07/07 10:45:20;;;;;;;4.82;3.00;;;26.90;40.60;;;;;;5148226;27;45512;-68
2023/07/07 10:47:47;;;;;;;3.33;3.03;;;26.90;40.60;;;;;;5137937;27;45470;-69
2023/07/07 10:50:16;;;;;;;6.38;3.10;;;27.00;40.50;;;;;;5142701;27;46551;-68
2023/07/07 10:52:49;;;;;;;3.83;3.05;;;27.00;40.40;;;;;;5138386;27;45316;-68
2023/07/07 10:55:19;;;;;;;4.10;3.20;;;27.10;40.50;;;;;;5144411;27;45716;-68
2023/07/07 10:57:50;;;;;;;5.65;3.17;;;27.10;40.60;;;;;;5149704;27;45252;-67
2023/07/07 11:00:30;;;;;;;3.97;3.13;;;27.20;40.90;;;;;;5147103;27;45417;-68
2023/07/07 11:03:30;;;;;;;4.32;3.17;;;27.20;41.10;;;;;;5146535;27;45396;-68
2023/07/07 11:05:59;;;;;;;6.07;2.95;;;27.30;41.10;;;;;;5124824;27;45360;-69
2023/07/07 11:08:31;;;;;;;4.00;3.28;;;27.40;41.10;;;;;;5149486;27;45278;-69
2023/07/07 11:11:09;;;;;;;4.32;3.20;;;27.40;41.00;;;;;;5143435;27;46349;-68
2023/07/07 11:13:52;;;;;;;3.80;3.03;;;27.50;40.90;;;;;;5140874;27;45615;-69
2023/07/07 11:16:21;;;;;;;5.15;3.10;;;27.60;40.90;;;;;;5141534;27;45633;-68
2023/07/07 11:18:59;;;;;;;4.93;3.33;;;27.60;40.90;;;;;;5145016;27;46466;-69
2023/07/07 11:21:31;;;;;;;4.40;3.45;;;27.70;40.90;;;;;;5141789;27;47337;-68
2023/07/07 11:24:09;;;;;;;6.65;2.80;;;27.70;40.90;;;;;;5136407;27;45275;-69
2023/07/07 11:26:43;;;;;;;3.28;2.97;;;27.80;40.90;;;;;;5146349;27;45430;-68
2023/07/07 11:29:13;;;;;;;4.28;3.08;;;27.80;40.80;;;;;;5155856;27;45571;-68
2023/07/07 11:31:48;;;;;;;4.47;3.28;;;27.90;41.00;;;;;;5145657;27;46239;-68
2023/07/07 11:34:24;;;;;;;5.75;3.10;;;27.90;41.00;;;;;;5147985;27;45414;-68
2023/07/07 11:37:01;;;;;;;6.10;3.40;;;28.00;40.80;;;;;;5139820;27;45186;-68
2023/07/07 11:39:43;;;;;;;3.83;2.92;;;28.10;40.70;;;;;;5146629;27;45526;-67
2023/07/07 11:42:21;;;;;;;5.57;3.38;;;28.10;40.70;;;;;;5143143;27;46757;-67
2023/07/07 11:44:55;;;;;;;4.38;3.35;;;28.20;40.40;;;;;;5145800;27;45365;-67
2023/07/07 11:47:31;;;;;;;5.20;2.97;;;28.20;40.30;;;;;;5146567;27;45559;-67
2023/07/07 11:50:08;;;;;;;5.05;3.42;;;28.30;40.20;;;;;;5146841;27;45308;-67
2023/07/07 11:52:46;;;;;;;5.28;3.13;;;28.40;40.10;;;;;;5147042;27;46409;-67
2023/07/07 11:55:26;;;;;;;3.95;3.22;;;28.40;39.90;;;;;;5147073;27;45390;-68
2023/07/07 11:58:01;;;;;;;4.70;3.28;;;28.50;39.70;;;;;;5139648;27;45592;-68
2023/07/07 12:00:33;;;;;;;7.05;3.15;;;28.50;39.70;;;;;;5146883;27;45453;-68
2023/07/07 12:03:18;;;;;;;4.82;3.30;;;28.60;39.60;;;;;;5139673;27;46349;-67
2023/07/07 12:05:44;;;;;;;4.88;2.90;;;28.60;39.60;;;;;;5144838;27;45444;-67
2023/07/07 12:08:15;;;;;;;4.25;2.67;;;28.70;39.40;;;;;;5156440;27;45350;-68
2023/07/07 12:10:44;;;;;;;7.07;3.47;;;28.80;39.40;;;;;;5148263;27;45435;-67
2023/07/07 12:13:13;;;;;;;7.47;3.10;;;28.90;39.50;;;;;;5145957;27;45454;-67
2023/07/07 12:15:42;;;;;;;3.95;3.20;;;28.90;39.30;;;;;;5140216;27;45472;-67
2023/07/07 12:18:11;;;;;;;3.90;3.20;;;29.00;39.00;;;;;;5142602;27;45786;-67
2023/07/07 12:20:40;;;;;;;4.55;3.00;;;29.00;39.00;;;;;;5145431;27;45531;-67
2023/07/07 12:23:09;;;;;;;3.60;2.72;;;29.10;39.00;;;;;;5141554;27;45385;-67
2023/07/07 12:25:39;;;;;;;5.10;3.50;;;29.10;38.80;;;;;;5142910;27;45279;-67
2023/07/07 12:28:06;;;;;;;7.70;3.25;;;29.20;38.50;;;;;;5146383;27;45473;-74
2023/07/07 12:30:36;;;;;;;6.10;3.30;;;29.30;39.80;;;;;;5147423;27;45568;-73
2023/07/07 12:33:10;;;;;;;10.65;3.40;;;29.40;39.70;;;;;;5146039;27;47977;-70
2023/07/07 12:35:44;;;;;;;8.20;3.28;;;29.50;40.20;;;;;;5142953;27;45409;-71
2023/07/07 12:38:16;;;;;;;5.25;3.17;;;29.50;39.70;;;;;;5142665;27;45332;-73
2023/07/07 12:40:44;;;;;;;8.18;3.60;;;29.60;39.70;;;;;;5147292;27;45435;-75
2023/07/07 12:43:22;;;;;;;12.40;3.55;;;29.70;40.40;;;;;;5147087;27;45569;-73
2023/07/07 12:45:49;;;;;;;4.40;3.20;;;29.80;40.80;;;;;;5145086;27;45377;-74
2023/07/07 12:48:19;;;;;;;4.20;3.03;;;29.90;40.60;;;;;;5147039;27;45460;-72
2023/07/07 12:50:45;;;;;;;3.58;2.92;;;30.00;40.40;;;;;;5147194;27;45339;-71
2023/07/07 12:53:14;;;;;;;5.75;3.28;;;30.10;39.70;;;;;;5146512;27;45475;-71
2023/07/07 12:55:59;;;;;;;7.50;3.45;;;30.20;39.40;;;;;;5143558;27;45426;-70